Annandale, Virginia
Current Conditions -  °F | °C
As of 12:58 PM on Saturday 25 Oct 2014 (Local Time) from KDAA Reporting Station
Clear Clear  
Wind Chill: 67°   Ceiling: Unl
Heat Index: 67°   Visibility: 10mi
Dew Point: 46°   Wind: 6mph
Humidity: 46%   Direction: 150°SSE
Pressure: 29.89"   Gusts: NA
Location:  38.83°N, 77.19°W
Report Text: KDAA 251658Z AUTO 15005KT 10SM CLR 20/08 A2989 RMK AO2 SLP125 T01970078
Loading
Personal Weather Stations






























Interactive Weather Map
Tropical Storm Tracking
New forecast layout! Learn more

10-Day Weather Forecast

Advertisements
Track Severe Weather on mobile